View Sortable Currents For Network
ASOSCoCoRaHSCOOPCellular COOPDCPISU Soil Moisture
OtherSCANMy FavoritesBy StateRWISRWIS Surface
RWIS TrafficRWIS SoilBy NWS WFOUSCRN
Select Network:
Include METARS:
Sort Order: Format:

Times shown are for timezone: America/Indiana/Indianapolis. The local day summary is based on that timezone.
Table sorted by: (Observation Time)     Click on a column to sort it. Click on site ID for more information. You can download data from this network here and you can view daily summaries on this network.
ADD: ID Station Ob Time Present Wx Temps °F   Wind [knots] Precip Clouds
Air Hi Lo Dewp Feels RH % Alti Vsby Speed Drct Gust @ Time 1 Hour Today Level 1 Level 2 Level 3 Level 4
C62Kendallville11:15 AM444429 35 41 69 30.36 10 5ESE5 @ 09:15 AM0 CLR
PLDPortland11:15 AM454534 32 40 61 30.34 7 8ESE8 @ 10:35 AM0 SCT 2500
MCXMonticello11:15 AM464632 33 43 61 30.34 10 5E7 @ 10:35 AM0 CLR
HNBHUNTINGBURG10:56 AM525238 40 52 63 30.3 10 7E10 @ 09:25 AM0 CLR
OKKKOKOMO10:56 AM464634 35 41 65 30.35 10 10E13 @ 09:10 AM0 CLR
BFRBedford10:55 AM505034 34 50 54 30.29 10 7SE8 @ 10:15 AM0 CLR
2R2Henricks County10:55 AM464633 37 43 71 30.32 10 5N9 @ 09:55 AM0 BKN 2600
FRHFrench Lick10:55 AM505037 36 50 58 30.29 10 8E15 @ 01:35 AM0 CLR
EKMELKHART MUNICIPA10:55 AM464629 34 43 61 30.35 10 6ENE6 @ 10:55 AM0 CLR
GPCGreencastle10:55 AM474732 36 42 65 30.31 10 8E9 @ 09:15 AM0 BKN 2400
RIDRichmond10:55 AM454537 34 40 66 30.32 10 8G15ENE15 @ 10:35 AM0 CLR
CFJCrawfordsville10:55 AM464629 31 43 54 30.33 10 6ESE9 @ 09:55 AM0 OVC 2600
MQJIndianapolis Mount Comfort10:55 AM474740 36 42 66 30.34 10 9E12 @ 09:55 AM0 BKN 2600
C65Plymouth10:55 AM464630 32 43 57 30.34 10 5ESE8 @ 10:15 AM0 CLR
ANQAngola10:55 AM454528 30 45 57 30.35 10 0N6 @ 08:35 AM0 CLR
HHGHuntington10:55 AM454532 34 42 64 30.35 10 6ENE7 @ 08:55 AM0 CLR
ASWWARSAW MUNI10:55 AM464630 32 41 59 30.35 10 7ESE7 @ 10:55 AM0 CLR
GWBAuburn10:55 AM434332 34 43 70 30.36 10 0N6 @ 08:15 AM0 CLR
TYQIndianapolis Exec10:55 AM464640 33 45 59 30.34 10 3E11 @ 09:35 AM0 CLR
RCRRochester10:55 AM464632 36 41 66 30.34 10 9E9 @ 10:35 AM0 CLR
DCYDaviess City10:55 AM505036 34 47 55 30.3 10 6E10 @ 09:55 AM0 CLR
IMSMadison10:55 AM454532 37 39 76 30.33 10 9G14NE14 @ 09:35 AM0 OVC 2600
GUSGRISSOM AFB/PERU10:55 AM474732 32 45 55 30.32 10 5E10 @ 09:55 AM0 CLR
MZZMarion10:55 AM458024 35 41 66 30.35 10 7E10 @ 09:15 AM0 CLR
FKRFrankfort10:55 AMM M M M N0
HLBBatesville10:55 AM464634 41 42 81 30.31 10 7ESE13 @ 09:55 AM0 SCT 2600
JVYJefferson10:55 AM525236 37 52 58 30.3 10 4G12N14 @ 09:35 AM0 BKN 3000
UWLNew Castle10:55 AM464641 34 42 61 30.32 10 7G14E14 @ 10:55 AM0 FEW 2500
UMPIndy Metro10:55 AM474742 34 43 61 30.35 10 7SE11 @ 08:55 AM0 CLR
FWAFORT WAYNE10:54 AM454531 33 42 63 30.36 10 5E8 @ 08:54 AM0 FEW 2200 FEW 18000 FEW 25000
INDINDIANAPOLIS10:54 AM474737 35 44 63 30.32 10 5E14 @ 09:35 AM0 BKN 2700
LAFLAFAYETTE10:54 AM484831 37 44 66 30.34 10 7SE9 @ 10:40 AM0 SCT 2400
SBNSOUTH BEND10:54 AM484828 33 47 56 30.36 10 3N5 @ 10:00 AM0 CLR
GEZSHELBYVILLE10:53 AM494936 35 44 58 30.32 10 10ESE15 @ 09:40 AM0 OVC 2400
BMGBloomington10:53 AM505032 34 50 54 30.29 10 8E11 @ 09:20 AM0 CLR
EYEINDIANAPOLIS10:53 AM494939 35 46 58 30.32 10 7E14 @ 08:50 AM0 BKN 2900
GSHGOSHEN10:53 AM464628 31 45 56 30.35 10 3N8 @ 09:25 AM0 T CLR
HUFTERRE HAUTE10:53 AM505030 38 50 63 30.3 10 7E10 @ 10:10 AM0 CLR
MIEMUNCIE10:53 AM474734 33 43 58 30.33 10 7E13 @ 10:50 AM0 FEW 2700
GGPLogansport10:35 AM454532 32 40 61 30.36 10 7ESE9 @ 09:55 AM0 CLR
AIDANDERSON MUNICIP09:59 AM434438 32 39 65 30.33 10 6E8 @ 05:15 AM0 BKN 2300
VPZVALPARAISO09:56 AM474728 33 45 58 30.35 10 4N7 @ 08:25 AM0 CLR
OXIKnox09:55 AM464628 28 43 49 30.35 10 6SSE6 @ 08:55 AM0 CLR
PPOLa Porte09:55 AM474727 31 45 53 30.36 10 3ESE7 @ 08:55 AM0 CLR
RZLRensselaer09:55 AM454530 34 40 66 30.35 10 7G14E14 @ 09:55 AM0 CLR
EVVEVANSVILLE09:54 AM535341 39 53 59 30.29 10 6E9 @ 07:25 AM0 CLR
BAKCOLUMBUS/BALKALA09:45 AM454532 36 40 70 30.33 10 8ENE8 @ 08:45 AM0 BKN 2700
GYYGARY REGIONAL09:45 AM484828 36 45 62 30.34 10 6SSE6 @ 04:45 AM0 CLR
MGCMichigan City09:35 AM464628 32 43 57 30.36 10 5ESE5 @ 09:35 AM0 CLR
HFYIndianapolis - Greenwood MuniSite Offline